Latest Coastal Weather Observations for Geelong Racecourse

IDV60701

Issued at 11:51 am EST Saturday 4 July 2015 (issued every 10 minutes, with the page automatically refreshed every 10 minutes)

About coastal observations | Map of coastal stations | Coastal observations for VIC | Marine services | Other Formats
Station Details ID: 087184 Name: GEELONG RACECOURSE Lat: -38.17 Lon: 144.38 Height: 12.9 m
Data from the previous 72 hours. | See also: Recent months at Geelong Racecourse
Date/Time
EST
Temp

°C
Wind Pressure Rain
since 9am
mm
Weather Cloud Vis
km
Sea
Height
m
Swell
Dir
 
Speed
knots
Gust
knots
hPa Trend Height
m
Period
s
Dir
04/11:30am 10.5 WNW 9 14 1021.5 - 0.6 - - - - - - -
04/11:00am 10.2 WNW 8 15 1021.7 - 0.6 - - - - - - -
04/10:30am 9.6 WNW 7 11 1022.0 - 0.6 - - - - - - -
04/10:00am 9.7 WNW 6 10 1022.0 - 0.4 - - - - - - -
04/09:30am 9.5 NW 6 9 1021.8 - 0.2 - - - - - - -
04/09:00am 9.2 NW 7 12 1021.7 - 0.0 - - - - - - -
04/08:30am 9.1 NNW 8 11 1021.5 - 0.0 - - - - - - -
04/08:00am 9.6 NW 7 11 1021.7 - 0.0 - - - - - - -
04/07:30am 9.8 NW 9 13 1021.6 - 0.0 - - - - - - -
04/07:00am 9.3 NNW 4 7 1021.1 - 0.0 - - - - - - -
04/06:30am 9.1 NW 8 12 1021.1 - 0.0 - - - - - - -
04/06:00am 8.9 NW 9 16 1021.0 - 0.0 - - - - - - -
04/05:30am 9.0 NW 9 13 1021.1 - 0.0 - - - - - - -
04/05:00am 9.0 NW 7 13 1021.1 - 0.0 - - - - - - -
04/04:30am 8.8 NW 6 11 1021.2 - 0.0 - - - - - - -
04/04:00am 8.5 NNW 6 9 1021.3 - 0.0 - - - - - - -
04/03:30am 8.1 NNW 3 5 1021.7 - 0.0 - - - - - - -
04/03:00am 8.3 NNW 5 7 1021.9 - 0.0 - - - - - - -
04/02:30am 8.3 NNW 6 8 1022.3 - 0.0 - - - - - - -
04/02:00am 8.2 NNW 4 7 1022.6 - 0.0 - - - - - - -
04/01:30am 7.5 NNW 4 5 1022.8 - 0.0 - - - - - - -
04/01:00am 7.5 NNW 4 6 1023.1 - 0.0 - - - - - - -
04/12:30am 7.6 NNW 4 6 1023.4 - 0.0 - - - - - - -
04/12:00am 7.7 NNW 4 5 1023.8 - 0.0 - - - - - - -
 
Date/Time
EST
Temp

°C
Wind Pressure Rain
since 9am
mm
Weather Cloud Vis
km
Sea
Height
m
Swell
Dir
 
Speed
knots
Gust
knots
hPa Trend Height
m
Period
s
Dir
03/11:30pm 8.3 NNW 5 7 1023.8 - 0.0 - - - - - - -
03/11:00pm 8.2 NNW 3 4 1024.1 - 0.0 - - - - - - -
03/10:30pm 8.0 NNW 2 3 1024.3 - 0.0 - - - - - - -
03/10:00pm 8.1 NNW 3 4 1024.5 - 0.0 - - - - - - -
03/09:30pm 8.5 N 2 3 1024.6 - 0.0 - - - - - - -
03/09:00pm 8.6 N 4 6 1024.9 - 0.0 - - - - - - -
03/08:30pm 8.5 N 4 5 1025.1 - 0.0 - - - - - - -
03/08:00pm 8.2 N 3 4 1025.2 - 0.0 - - - - - - -
03/07:30pm 7.9 NNW 2 3 1025.4 - 0.0 - - - - - - -
03/07:00pm 8.1 NW 6 8 1025.5 - 0.0 - - - - - - -
03/06:30pm 8.2 NW 5 7 1025.6 - 0.0 - - - - - - -
03/06:00pm 8.9 NW 5 7 1025.7 - 0.0 - - - - - - -
03/05:30pm 9.0 WNW 6 8 1025.6 - 0.0 - - - - - - -
03/05:00pm 9.5 WNW 6 11 1025.7 - 0.0 - - - - - - -
03/04:30pm 9.8 NW 6 10 1025.8 - 0.0 - - - - - - -
03/04:00pm 10.0 WNW 6 11 1025.9 - 0.0 - - - - - - -
03/03:30pm 10.4 WNW 8 13 1026.1 - 0.0 - - - - - - -
03/03:00pm 10.4 WNW 8 13 1026.0 - 0.0 - - - - - - -
03/02:30pm 10.5 WNW 8 13 1026.1 - 0.0 - - - - - - -
03/02:00pm 11.9 WNW 10 16 1026.2 - 0.0 - - - - - - -
03/01:30pm 11.3 WNW 10 15 1026.7 - 0.0 - - - - - - -
03/01:00pm 11.6 WNW 10 14 1027.0 - 0.0 - - - - - - -
03/12:30pm 11.1 WNW 7 11 1027.2 - 0.0 - - - - - - -
03/12:00pm 11.0 NW 9 13 1027.4 - 0.0 - - - - - - -
03/11:30am 10.4 WNW 8 12 1027.9 - 0.0 - - - - - - -
03/11:00am 10.1 NW 8 11 1028.3 - 0.0 - - - - - - -
03/10:30am 8.8 WNW 6 8 1028.7 - 0.0 - - - - - - -
03/10:00am 8.1 WNW 8 13 1028.8 - 0.0 - - - - - - -
03/09:30am 7.5 WNW 6 10 1028.8 - 0.0 - - - - - - -
03/09:00am 7.1 WNW 7 11 1028.7 - 0.2 - - - - - - -
03/08:30am 6.8 NW 7 10 1028.3 - - - - - - - - -
03/08:00am 6.6 NW 7 9 1028.0 - - - - - - - - -
03/07:30am 6.7 NW 4 7 1027.9 - - - - - - - - -
03/07:00am 6.2 WNW 5 7 1028.0 - - - - - - - - -
03/06:30am 6.0 NW 6 8 1027.8 - - - - - - - - -
03/06:00am 5.7 WNW 5 7 1027.9 - - - - - - - - -
03/05:30am 5.3 WNW 4 6 1027.7 - - - - - - - - -
03/05:00am 5.5 NW 6 8 1027.7 - - - - - - - - -
03/04:30am 5.6 NW 5 7 1027.9 - - - - - - - - -
03/04:00am 5.6 WNW 5 7 1027.9 - - - - - - - - -
03/03:30am 5.8 E 1 3 1027.9 - - - - - - - - -
03/03:00am 5.0 NW 4 7 1028.1 - 0.0 - - - - - - -
03/02:30am 4.7 NW 6 9 1028.0 - - - - - - - - -
03/02:00am 5.0 NW 4 4 1028.1 - - - - - - - - -
03/01:30am 5.0 NW 3 5 1028.2 - - - - - - - - -
03/01:00am 6.2 WNW 4 6 1028.4 - - - - - - - - -
03/12:30am 6.6 WSW 6 8 1028.5 - - - - - - - - -
03/12:00am 6.2 W 4 7 1028.7 - - - - - - - - -
 
Date/Time
EST
Temp

°C
Wind Pressure Rain
since 9am
mm
Weather Cloud Vis
km
Sea
Height
m
Swell
Dir
 
Speed
knots
Gust
knots
hPa Trend Height
m
Period
s
Dir
02/11:30pm 6.4 WNW 4 8 1028.9 - - - - - - - - -
02/11:00pm 7.0 W 3 5 1028.9 - - - - - - - - -
02/10:30pm 7.0 W 6 8 1028.8 - - - - - - - - -
02/10:00pm 7.1 W 5 7 1028.4 - - - - - - - - -
02/09:30pm 7.5 W 6 10 1028.4 - - - - - - - - -
02/09:00pm 7.4 W 6 8 1028.3 - - - - - - - - -
02/08:30pm 8.0 WSW 7 11 1028.1 - - - - - - - - -
02/08:00pm 7.3 W 6 8 1028.0 - - - - - - - - -
02/07:30pm 7.4 W 4 6 1027.8 - - - - - - - - -
02/07:00pm 8.0 SW 6 8 1027.7 - - - - - - - - -
02/06:30pm 8.3 WSW 4 6 1027.1 - - - - - - - - -
02/06:00pm 8.3 WSW 6 8 1026.8 - - - - - - - - -
02/05:30pm 8.6 WSW 6 10 1027.0 - - - - - - - - -
02/05:00pm 9.4 SW 7 10 1026.5 - - - - - - - - -
02/04:30pm 10.4 SW 10 16 1026.1 - - - - - - - - -
02/04:00pm 11.0 SSW 10 14 1025.7 - - - - - - - - -
02/03:30pm 11.8 SW 11 16 1025.2 - - - - - - - - -
02/03:00pm 11.8 SW 14 20 1025.0 - 0.0 - - - - - - -
02/02:30pm 11.0 SW 15 21 1025.1 - 0.0 - - - - - - -
02/02:00pm 11.7 SW 13 19 1024.5 - 0.0 - - - - - - -
02/01:30pm 10.8 SW 13 19 1024.2 - 0.0 - - - - - - -
02/01:02pm 10.4 SW 17 27 1024.3 - 0.0 - - - - - - -
02/01:00pm 10.9 SW 15 25 1024.2 - 0.0 - - - - - - -
02/12:30pm 10.4 SW 17 23 1023.9 - 0.0 - - - - - - -
02/12:00pm 10.8 SW 14 20 1023.6 - 0.0 - - - - - - -
02/11:31am 10.4 SW 16 26 1023.5 - 0.0 - - - - - - -
02/11:30am 10.2 SW 17 26 1023.5 - 0.0 - - - - - - -
02/11:02am 9.4 SSW 14 30 1023.9 - 0.0 - - - - - - -
02/11:00am 9.8 SW 13 20 1023.8 - 0.0 - - - - - - -
02/10:30am 10.2 WSW 10 15 1023.1 - 0.0 - - - - - - -
02/10:00am 9.3 W 10 13 1022.4 - 0.0 - - - - - - -
02/09:30am 8.4 WSW 13 22 1022.0 - 0.0 - - - - - - -
02/09:00am 8.4 WSW 14 24 1021.6 - - Recent precip. - - - - - -
02/08:30am 8.7 WSW 8 12 1021.1 - - - - - - - - -
02/08:00am 8.8 W 12 18 1020.2 - - - - - - - - -
02/07:30am 8.9 WNW 11 18 1019.5 - - - - - - - - -
02/07:00am 9.0 WNW 11 18 1019.2 - - - - - - - - -
02/06:30am 9.3 WNW 11 17 1018.9 - - - - - - - - -
02/06:00am 9.7 WNW 7 11 1018.7 - - - - - - - - -
02/05:30am 9.9 W 6 10 1018.8 - - - - - - - - -
02/05:00am 10.3 W 5 8 1018.7 - - - - - - - - -
02/04:30am 10.5 WSW 8 13 1018.6 - 0.8 - - - - - - -
02/04:00am 10.9 WNW 7 13 1018.2 - 0.2 - - - - - - -
02/03:30am 10.6 WNW 8 14 1018.3 - 0.2 - - - - - - -
02/03:00am 10.7 WNW 12 18 1018.3 - 0.2 Recent precip. - - - - - -
02/02:30am 12.4 WNW 13 19 1018.1 - 0.0 - - - - - - -
02/02:00am 12.5 WNW 15 25 1017.9 - 0.0 - - - - - - -
02/01:30am 12.5 NW 14 26 1018.0 - 0.0 - - - - - - -
02/01:00am 12.9 NW 16 27 1018.3 - 0.0 - - - - - - -
02/12:54am 13.0 NW 15 27 1018.4 - 0.0 - - - - - - -
02/12:30am 12.7 NW 13 19 1018.8 - 0.0 - - - - - - -
02/12:00am 12.4 NW 10 17 1019.2 - 0.0 - - - - - - -
 
Date/Time
EST
Temp

°C
Wind Pressure Rain
since 9am
mm
Weather Cloud Vis
km
Sea
Height
m
Swell
Dir
 
Speed
knots
Gust
knots
hPa Trend Height
m
Period
s
Dir
01/11:30pm 12.4 NW 13 19 1019.6 - 0.0 - - - - - - -
01/11:00pm 12.4 NW 10 16 1019.8 - 0.0 - - - - - - -
01/10:30pm 11.8 NNW 8 15 1020.4 - 0.0 - - - - - - -
01/10:00pm 11.4 NW 6 10 1020.8 - 0.0 - - - - - - -
01/09:30pm 11.2 NW 7 12 1020.8 - 0.0 - - - - - - -
01/09:00pm 11.8 NW 9 14 1021.0 - 0.0 - - - - - - -
01/08:30pm 11.7 NW 10 18 1021.1 - 0.0 - - - - - - -
01/08:00pm 11.8 NW 8 12 1021.2 - 0.0 - - - - - - -
01/07:30pm 11.9 NW 10 16 1021.2 - 0.0 - - - - - - -
01/07:00pm 11.9 NW 9 15 1021.2 - 0.0 - - - - - - -
01/06:30pm 12.0 NW 9 15 1021.2 - 0.0 - - - - - - -
01/06:00pm 12.2 NW 8 12 1021.6 - 0.0 - - - - - - -
01/05:30pm 12.7 NNW 8 12 1021.4 - 0.0 - - - - - - -
01/05:00pm 13.2 NNW 8 13 1021.7 - 0.0 - - - - - - -
01/04:30pm 13.4 NW 8 12 1021.9 - 0.0 - - - - - - -
01/04:00pm 13.8 NW 10 16 1022.0 - 0.0 - - - - - - -
01/03:30pm 14.0 NW 12 17 1022.1 - 0.0 - - - - - - -
01/03:00pm 14.0 NW 11 17 1022.5 - 0.0 - - - - - - -
01/02:30pm 13.2 NW 14 24 1022.8 - 0.0 - - - - - - -
01/02:00pm 13.4 WNW 13 21 1023.4 - 0.0 - - - - - - -
01/01:30pm 14.6 WNW 11 20 1023.5 - 0.0 - - - - - - -
01/01:00pm 14.3 NW 10 16 1024.1 - 0.0 - - - - - - -
01/12:30pm 14.1 NNW 12 20 1024.6 - 0.0 - - - - - - -
01/12:00pm 14.0 NW 10 16 1025.1 - 0.0 - - - - - - -

Other Formats:

Comma delimited format used in spreadsheet applications
http://www.bom.gov.au/fwo/IDV60701/IDV60701.94857.axf

JavaScript Object Notation format (JSON) in row-major order
http://www.bom.gov.au/fwo/IDV60701/IDV60701.94857.json